sensor_id;sensor_type;location;lat;lon;timestamp;temperature;humidity
32614;DHT22;19031;51.400;6.770;2024-02-23T00:00:27;6.10;99.90
32614;DHT22;19031;51.400;6.770;2024-02-23T00:02:53;6.10;99.90
32614;DHT22;19031;51.400;6.770;2024-02-23T00:05:21;6.10;99.90
32614;DHT22;19031;51.400;6.770;2024-02-23T00:07:47;6.00;99.90
32614;DHT22;19031;51.400;6.770;2024-02-23T00:10:12;6.00;99.90
32614;DHT22;19031;51.400;6.770;2024-02-23T00:12:38;6.00;99.90
32614;DHT22;19031;51.400;6.770;2024-02-23T00:15:04;6.00;99.90
32614;DHT22;19031;51.400;6.770;2024-02-23T00:17:30;6.00;99.90
32614;DHT22;19031;51.400;6.770;2024-02-23T00:19:55;6.00;99.90
32614;DHT22;19031;51.400;6.770;2024-02-23T00:22:21;6.00;99.90
32614;DHT22;19031;51.400;6.770;2024-02-23T00:24:46;6.00;99.90
32614;DHT22;19031;51.400;6.770;2024-02-23T00:27:12;6.00;99.90
32614;DHT22;19031;51.400;6.770;2024-02-23T00:29:37;6.00;99.90
32614;DHT22;19031;51.400;6.770;2024-02-23T00:32:03;6.00;99.90
32614;DHT22;19031;51.400;6.770;2024-02-23T00:34:29;6.00;99.90
32614;DHT22;19031;51.400;6.770;2024-02-23T00:36:57;6.00;99.90
32614;DHT22;19031;51.400;6.770;2024-02-23T00:39:22;6.00;99.90
32614;DHT22;19031;51.400;6.770;2024-02-23T00:41:48;6.10;99.90
32614;DHT22;19031;51.400;6.770;2024-02-23T00:44:14;6.10;99.90
32614;DHT22;19031;51.400;6.770;2024-02-23T00:46:39;6.20;99.90
32614;DHT22;19031;51.400;6.770;2024-02-23T00:49:06;6.10;99.90
32614;DHT22;19031;51.400;6.770;2024-02-23T00:51:31;6.10;99.90
32614;DHT22;19031;51.400;6.770;2024-02-23T00:53:57;6.00;99.90
32614;DHT22;19031;51.400;6.770;2024-02-23T00:56:23;6.00;99.90
32614;DHT22;19031;51.400;6.770;2024-02-23T00:58:48;6.10;99.90
32614;DHT22;19031;51.400;6.770;2024-02-23T01:01:14;6.10;99.90
32614;DHT22;19031;51.400;6.770;2024-02-23T01:03:39;6.00;99.90
32614;DHT22;19031;51.400;6.770;2024-02-23T01:06:05;6.10;99.90
32614;DHT22;19031;51.400;6.770;2024-02-23T01:08:30;5.90;99.90
32614;DHT22;19031;51.400;6.770;2024-02-23T01:10:56;6.00;99.90
32614;DHT22;19031;51.400;6.770;2024-02-23T01:13:22;5.80;99.90
32614;DHT22;19031;51.400;6.770;2024-02-23T01:15:48;5.80;99.90
32614;DHT22;19031;51.400;6.770;2024-02-23T01:18:13;5.80;99.90
32614;DHT22;19031;51.400;6.770;2024-02-23T01:20:39;5.90;99.90
32614;DHT22;19031;51.400;6.770;2024-02-23T01:23:05;5.90;99.90
32614;DHT22;19031;51.400;6.770;2024-02-23T01:25:30;5.80;99.90
32614;DHT22;19031;51.400;6.770;2024-02-23T01:27:56;5.80;99.90
32614;DHT22;19031;51.400;6.770;2024-02-23T01:30:21;5.80;99.90
32614;DHT22;19031;51.400;6.770;2024-02-23T01:32:48;5.90;99.90
32614;DHT22;19031;51.400;6.770;2024-02-23T01:35:13;5.90;99.90
32614;DHT22;19031;51.400;6.770;2024-02-23T01:37:39;6.00;99.90
32614;DHT22;19031;51.400;6.770;2024-02-23T01:40:05;5.90;99.90
32614;DHT22;19031;51.400;6.770;2024-02-23T01:42:31;6.00;99.90
32614;DHT22;19031;51.400;6.770;2024-02-23T01:44:57;6.00;99.90
32614;DHT22;19031;51.400;6.770;2024-02-23T01:47:23;6.00;99.90
32614;DHT22;19031;51.400;6.770;2024-02-23T01:49:51;6.00;99.90
32614;DHT22;19031;51.400;6.770;2024-02-23T01:52:17;5.90;99.90
32614;DHT22;19031;51.400;6.770;2024-02-23T01:54:43;5.90;99.90
32614;DHT22;19031;51.400;6.770;2024-02-23T01:57:09;5.90;99.90
32614;DHT22;19031;51.400;6.770;2024-02-23T01:59:36;5.90;99.90
32614;DHT22;19031;51.400;6.770;2024-02-23T02:02:03;6.00;99.90
32614;DHT22;19031;51.400;6.770;2024-02-23T02:04:29;5.90;99.90
32614;DHT22;19031;51.400;6.770;2024-02-23T02:06:55;6.00;99.90
32614;DHT22;19031;51.400;6.770;2024-02-23T02:09:21;6.00;99.90
32614;DHT22;19031;51.400;6.770;2024-02-23T02:11:48;6.00;99.90
32614;DHT22;19031;51.400;6.770;2024-02-23T02:14:14;6.10;99.90
32614;DHT22;19031;51.400;6.770;2024-02-23T02:16:40;6.20;99.90
32614;DHT22;19031;51.400;6.770;2024-02-23T02:19:05;6.00;99.90
32614;DHT22;19031;51.400;6.770;2024-02-23T02:21:32;6.10;99.90
32614;DHT22;19031;51.400;6.770;2024-02-23T02:23:57;6.00;99.90
32614;DHT22;19031;51.400;6.770;2024-02-23T02:26:23;6.00;99.90
32614;DHT22;19031;51.400;6.770;2024-02-23T02:28:48;6.00;99.90
32614;DHT22;19031;51.400;6.770;2024-02-23T02:31:14;6.00;99.90
32614;DHT22;19031;51.400;6.770;2024-02-23T02:33:42;6.00;99.90
32614;DHT22;19031;51.400;6.770;2024-02-23T02:36:08;5.90;99.90
32614;DHT22;19031;51.400;6.770;2024-02-23T02:38:33;5.90;99.90
32614;DHT22;19031;51.400;6.770;2024-02-23T02:40:59;5.80;99.90
32614;DHT22;19031;51.400;6.770;2024-02-23T02:43:26;5.80;99.90
32614;DHT22;19031;51.400;6.770;2024-02-23T02:45:52;5.80;99.90
32614;DHT22;19031;51.400;6.770;2024-02-23T02:48:17;5.80;99.90
32614;DHT22;19031;51.400;6.770;2024-02-23T02:50:43;5.80;99.90
32614;DHT22;19031;51.400;6.770;2024-02-23T02:53:09;5.70;99.90
32614;DHT22;19031;51.400;6.770;2024-02-23T02:55:42;5.70;99.90
32614;DHT22;19031;51.400;6.770;2024-02-23T02:58:08;5.60;99.90
32614;DHT22;19031;51.400;6.770;2024-02-23T03:00:34;5.70;99.90
32614;DHT22;19031;51.400;6.770;2024-02-23T03:02:59;5.60;99.90
32614;DHT22;19031;51.400;6.770;2024-02-23T03:05:25;5.60;99.90
32614;DHT22;19031;51.400;6.770;2024-02-23T03:07:51;5.60;99.90
32614;DHT22;19031;51.400;6.770;2024-02-23T03:10:16;5.60;99.90
32614;DHT22;19031;51.400;6.770;2024-02-23T03:12:42;5.60;99.90
32614;DHT22;19031;51.400;6.770;2024-02-23T03:15:08;5.60;99.90
32614;DHT22;19031;51.400;6.770;2024-02-23T03:17:35;5.50;99.90
32614;DHT22;19031;51.400;6.770;2024-02-23T03:20:01;5.60;99.90
32614;DHT22;19031;51.400;6.770;2024-02-23T03:22:27;5.70;99.90
32614;DHT22;19031;51.400;6.770;2024-02-23T03:24:52;5.60;99.90
32614;DHT22;19031;51.400;6.770;2024-02-23T03:27:19;5.60;99.90
32614;DHT22;19031;51.400;6.770;2024-02-23T03:29:44;5.60;99.90
32614;DHT22;19031;51.400;6.770;2024-02-23T03:32:10;5.70;99.90
32614;DHT22;19031;51.400;6.770;2024-02-23T03:34:36;5.70;99.90
32614;DHT22;19031;51.400;6.770;2024-02-23T03:37:02;5.70;99.90
32614;DHT22;19031;51.400;6.770;2024-02-23T03:39:28;5.70;99.90
32614;DHT22;19031;51.400;6.770;2024-02-23T03:41:54;5.70;99.90
32614;DHT22;19031;51.400;6.770;2024-02-23T03:44:19;5.70;99.90
32614;DHT22;19031;51.400;6.770;2024-02-23T03:46:45;5.70;99.90
32614;DHT22;19031;51.400;6.770;2024-02-23T03:49:11;5.70;99.90
32614;DHT22;19031;51.400;6.770;2024-02-23T03:51:37;5.70;99.90
32614;DHT22;19031;51.400;6.770;2024-02-23T03:54:05;5.80;99.90
32614;DHT22;19031;51.400;6.770;2024-02-23T03:56:38;5.80;99.90
32614;DHT22;19031;51.400;6.770;2024-02-23T03:59:04;5.80;99.90
32614;DHT22;19031;51.400;6.770;2024-02-23T04:01:30;5.90;99.90
32614;DHT22;19031;51.400;6.770;2024-02-23T04:03:55;5.90;99.90
32614;DHT22;19031;51.400;6.770;2024-02-23T04:06:21;6.00;99.90
32614;DHT22;19031;51.400;6.770;2024-02-23T04:08:46;5.90;99.90
32614;DHT22;19031;51.400;6.770;2024-02-23T04:11:13;6.00;99.90
32614;DHT22;19031;51.400;6.770;2024-02-23T04:13:38;5.90;99.90
32614;DHT22;19031;51.400;6.770;2024-02-23T04:16:04;5.90;99.90
32614;DHT22;19031;51.400;6.770;2024-02-23T04:18:30;6.00;99.90
32614;DHT22;19031;51.400;6.770;2024-02-23T04:20:56;6.00;99.90
32614;DHT22;19031;51.400;6.770;2024-02-23T04:23:22;6.00;99.90
32614;DHT22;19031;51.400;6.770;2024-02-23T04:25:47;6.10;99.90
32614;DHT22;19031;51.400;6.770;2024-02-23T04:28:13;6.00;99.90
32614;DHT22;19031;51.400;6.770;2024-02-23T04:30:38;6.00;99.90
32614;DHT22;19031;51.400;6.770;2024-02-23T04:33:04;6.10;99.90
32614;DHT22;19031;51.400;6.770;2024-02-23T04:35:30;6.10;99.90
32614;DHT22;19031;51.400;6.770;2024-02-23T04:37:55;6.00;99.90
32614;DHT22;19031;51.400;6.770;2024-02-23T04:40:21;6.00;99.90
32614;DHT22;19031;51.400;6.770;2024-02-23T04:42:46;6.00;99.90
32614;DHT22;19031;51.400;6.770;2024-02-23T04:45:12;6.00;99.90
32614;DHT22;19031;51.400;6.770;2024-02-23T04:47:38;6.00;99.90
32614;DHT22;19031;51.400;6.770;2024-02-23T04:50:06;6.00;99.90
32614;DHT22;19031;51.400;6.770;2024-02-23T04:52:32;5.90;99.90
32614;DHT22;19031;51.400;6.770;2024-02-23T04:54:57;5.90;99.90
32614;DHT22;19031;51.400;6.770;2024-02-23T04:57:23;5.90;99.90
32614;DHT22;19031;51.400;6.770;2024-02-23T04:59:48;5.90;99.90
32614;DHT22;19031;51.400;6.770;2024-02-23T05:02:14;5.90;99.90
32614;DHT22;19031;51.400;6.770;2024-02-23T05:04:40;6.00;99.90
32614;DHT22;19031;51.400;6.770;2024-02-23T05:07:05;6.00;99.90
32614;DHT22;19031;51.400;6.770;2024-02-23T05:09:31;6.10;99.90
32614;DHT22;19031;51.400;6.770;2024-02-23T05:11:57;6.00;99.90
32614;DHT22;19031;51.400;6.770;2024-02-23T05:14:23;6.10;99.90
32614;DHT22;19031;51.400;6.770;2024-02-23T05:16:48;6.10;99.90
32614;DHT22;19031;51.400;6.770;2024-02-23T05:19:14;6.10;99.90
32614;DHT22;19031;51.400;6.770;2024-02-23T05:21:39;6.10;99.90
32614;DHT22;19031;51.400;6.770;2024-02-23T05:24:05;6.10;99.90
32614;DHT22;19031;51.400;6.770;2024-02-23T05:26:31;6.10;99.90
32614;DHT22;19031;51.400;6.770;2024-02-23T05:28:57;6.20;99.90
32614;DHT22;19031;51.400;6.770;2024-02-23T05:31:46;6.20;99.90
32614;DHT22;19031;51.400;6.770;2024-02-23T05:34:12;6.10;99.90
32614;DHT22;19031;51.400;6.770;2024-02-23T05:36:38;6.20;99.90
32614;DHT22;19031;51.400;6.770;2024-02-23T05:39:03;6.10;99.90
32614;DHT22;19031;51.400;6.770;2024-02-23T05:41:29;6.30;99.90
32614;DHT22;19031;51.400;6.770;2024-02-23T05:43:55;6.20;99.90
32614;DHT22;19031;51.400;6.770;2024-02-23T05:46:20;6.20;99.90
32614;DHT22;19031;51.400;6.770;2024-02-23T05:48:46;6.20;99.90
32614;DHT22;19031;51.400;6.770;2024-02-23T05:51:12;6.20;99.90
32614;DHT22;19031;51.400;6.770;2024-02-23T05:53:37;6.20;99.90
32614;DHT22;19031;51.400;6.770;2024-02-23T05:56:03;6.20;99.90
32614;DHT22;19031;51.400;6.770;2024-02-23T05:58:29;6.10;99.90
32614;DHT22;19031;51.400;6.770;2024-02-23T06:00:54;6.10;99.90
32614;DHT22;19031;51.400;6.770;2024-02-23T06:03:20;6.20;99.90
32614;DHT22;19031;51.400;6.770;2024-02-23T06:05:46;6.10;99.90
32614;DHT22;19031;51.400;6.770;2024-02-23T06:08:11;6.20;99.90
32614;DHT22;19031;51.400;6.770;2024-02-23T06:10:37;6.20;99.90
32614;DHT22;19031;51.400;6.770;2024-02-23T06:13:03;6.20;99.90
32614;DHT22;19031;51.400;6.770;2024-02-23T06:15:29;6.20;99.90
32614;DHT22;19031;51.400;6.770;2024-02-23T06:17:54;6.20;99.90
32614;DHT22;19031;51.400;6.770;2024-02-23T06:20:20;6.30;99.90
32614;DHT22;19031;51.400;6.770;2024-02-23T06:22:45;6.20;99.90
32614;DHT22;19031;51.400;6.770;2024-02-23T06:25:11;6.40;99.90
32614;DHT22;19031;51.400;6.770;2024-02-23T06:27:37;6.30;99.90
32614;DHT22;19031;51.400;6.770;2024-02-23T06:30:03;6.30;99.90
32614;DHT22;19031;51.400;6.770;2024-02-23T06:32:29;6.30;99.90
32614;DHT22;19031;51.400;6.770;2024-02-23T06:34:55;6.30;99.90
32614;DHT22;19031;51.400;6.770;2024-02-23T06:37:20;6.40;99.90
32614;DHT22;19031;51.400;6.770;2024-02-23T06:39:46;6.30;99.90
32614;DHT22;19031;51.400;6.770;2024-02-23T06:42:16;6.30;99.90
32614;DHT22;19031;51.400;6.770;2024-02-23T06:44:42;6.40;99.90
32614;DHT22;19031;51.400;6.770;2024-02-23T06:47:07;6.40;99.90
32614;DHT22;19031;51.400;6.770;2024-02-23T06:49:33;6.50;99.90
32614;DHT22;19031;51.400;6.770;2024-02-23T06:51:58;6.40;99.90
32614;DHT22;19031;51.400;6.770;2024-02-23T06:54:24;6.30;99.90
32614;DHT22;19031;51.400;6.770;2024-02-23T06:56:49;6.30;99.90
32614;DHT22;19031;51.400;6.770;2024-02-23T06:59:15;6.30;99.90
32614;DHT22;19031;51.400;6.770;2024-02-23T07:01:53;6.40;99.90
32614;DHT22;19031;51.400;6.770;2024-02-23T07:04:19;6.30;99.90
32614;DHT22;19031;51.400;6.770;2024-02-23T07:06:45;6.30;99.90
32614;DHT22;19031;51.400;6.770;2024-02-23T07:09:11;6.30;99.90
32614;DHT22;19031;51.400;6.770;2024-02-23T07:11:37;6.40;99.90
32614;DHT22;19031;51.400;6.770;2024-02-23T07:14:03;6.30;99.90
32614;DHT22;19031;51.400;6.770;2024-02-23T07:16:29;6.40;99.90
32614;DHT22;19031;51.400;6.770;2024-02-23T07:18:55;6.50;99.90
32614;DHT22;19031;51.400;6.770;2024-02-23T07:21:22;6.50;99.90
32614;DHT22;19031;51.400;6.770;2024-02-23T07:23:47;6.60;99.90
32614;DHT22;19031;51.400;6.770;2024-02-23T07:26:13;6.70;99.90
32614;DHT22;19031;51.400;6.770;2024-02-23T07:28:38;6.70;99.90
32614;DHT22;19031;51.400;6.770;2024-02-23T07:31:04;6.70;99.90
32614;DHT22;19031;51.400;6.770;2024-02-23T07:33:29;6.80;99.90
32614;DHT22;19031;51.400;6.770;2024-02-23T07:35:55;6.70;99.90
32614;DHT22;19031;51.400;6.770;2024-02-23T07:38:21;6.70;99.90
32614;DHT22;19031;51.400;6.770;2024-02-23T07:40:46;6.70;99.90
32614;DHT22;19031;51.400;6.770;2024-02-23T07:43:12;6.80;99.90
32614;DHT22;19031;51.400;6.770;2024-02-23T07:45:38;6.70;99.90
32614;DHT22;19031;51.400;6.770;2024-02-23T07:48:04;6.80;99.90
32614;DHT22;19031;51.400;6.770;2024-02-23T07:50:30;6.80;99.90
32614;DHT22;19031;51.400;6.770;2024-02-23T07:52:55;6.90;99.90
32614;DHT22;19031;51.400;6.770;2024-02-23T07:55:21;6.90;99.90
32614;DHT22;19031;51.400;6.770;2024-02-23T07:57:47;6.90;99.90
32614;DHT22;19031;51.400;6.770;2024-02-23T08:00:13;7.00;99.90
32614;DHT22;19031;51.400;6.770;2024-02-23T08:02:39;6.90;99.90
32614;DHT22;19031;51.400;6.770;2024-02-23T08:05:05;7.10;99.90
32614;DHT22;19031;51.400;6.770;2024-02-23T08:07:32;7.20;99.90
32614;DHT22;19031;51.400;6.770;2024-02-23T08:09:57;7.20;99.90
32614;DHT22;19031;51.400;6.770;2024-02-23T08:12:23;7.30;99.90
32614;DHT22;19031;51.400;6.770;2024-02-23T08:14:49;7.30;99.90
32614;DHT22;19031;51.400;6.770;2024-02-23T08:17:18;7.30;99.90
32614;DHT22;19031;51.400;6.770;2024-02-23T08:19:44;7.30;99.90
32614;DHT22;19031;51.400;6.770;2024-02-23T08:22:09;7.30;99.90
32614;DHT22;19031;51.400;6.770;2024-02-23T08:24:35;7.40;99.90
32614;DHT22;19031;51.400;6.770;2024-02-23T08:27:00;7.20;99.90
32614;DHT22;19031;51.400;6.770;2024-02-23T08:29:27;7.10;99.90
32614;DHT22;19031;51.400;6.770;2024-02-23T08:31:52;7.40;99.90
32614;DHT22;19031;51.400;6.770;2024-02-23T08:34:18;7.90;99.90
32614;DHT22;19031;51.400;6.770;2024-02-23T08:36:43;8.70;99.90
32614;DHT22;19031;51.400;6.770;2024-02-23T08:39:09;9.10;99.90
32614;DHT22;19031;51.400;6.770;2024-02-23T08:41:35;9.50;99.90
32614;DHT22;19031;51.400;6.770;2024-02-23T08:44:01;10.00;99.90
32614;DHT22;19031;51.400;6.770;2024-02-23T08:46:26;9.60;99.90
32614;DHT22;19031;51.400;6.770;2024-02-23T08:48:52;9.00;99.90
32614;DHT22;19031;51.400;6.770;2024-02-23T08:51:17;8.60;99.90
32614;DHT22;19031;51.400;6.770;2024-02-23T08:53:43;8.50;99.90
32614;DHT22;19031;51.400;6.770;2024-02-23T08:56:08;8.40;99.90
32614;DHT22;19031;51.400;6.770;2024-02-23T08:58:34;8.10;99.90
32614;DHT22;19031;51.400;6.770;2024-02-23T09:01:00;8.10;99.90
32614;DHT22;19031;51.400;6.770;2024-02-23T09:03:26;8.00;99.90
32614;DHT22;19031;51.400;6.770;2024-02-23T09:05:51;8.20;99.90
32614;DHT22;19031;51.400;6.770;2024-02-23T09:08:17;8.30;99.90
32614;DHT22;19031;51.400;6.770;2024-02-23T09:10:42;8.40;99.90
32614;DHT22;19031;51.400;6.770;2024-02-23T09:13:08;8.50;99.90
32614;DHT22;19031;51.400;6.770;2024-02-23T09:15:34;8.50;99.90
32614;DHT22;19031;51.400;6.770;2024-02-23T09:17:59;8.60;99.90
32614;DHT22;19031;51.400;6.770;2024-02-23T09:20:25;8.80;99.90
32614;DHT22;19031;51.400;6.770;2024-02-23T09:22:50;8.80;99.90
32614;DHT22;19031;51.400;6.770;2024-02-23T09:25:16;8.70;99.90
32614;DHT22;19031;51.400;6.770;2024-02-23T09:27:41;8.80;99.90
32614;DHT22;19031;51.400;6.770;2024-02-23T09:30:12;8.80;99.90
32614;DHT22;19031;51.400;6.770;2024-02-23T09:32:38;8.70;99.90
32614;DHT22;19031;51.400;6.770;2024-02-23T09:35:04;8.70;99.90
32614;DHT22;19031;51.400;6.770;2024-02-23T09:37:30;8.70;99.90
32614;DHT22;19031;51.400;6.770;2024-02-23T09:39:56;8.70;99.90
32614;DHT22;19031;51.400;6.770;2024-02-23T09:42:23;8.50;99.90
32614;DHT22;19031;51.400;6.770;2024-02-23T09:44:59;8.50;99.90
32614;DHT22;19031;51.400;6.770;2024-02-23T09:47:28;8.50;99.90
32614;DHT22;19031;51.400;6.770;2024-02-23T09:49:54;8.50;99.90
32614;DHT22;19031;51.400;6.770;2024-02-23T09:52:21;8.40;99.90
32614;DHT22;19031;51.400;6.770;2024-02-23T09:54:47;8.50;99.90
32614;DHT22;19031;51.400;6.770;2024-02-23T09:57:14;8.40;99.90
32614;DHT22;19031;51.400;6.770;2024-02-23T09:59:41;8.50;99.90
32614;DHT22;19031;51.400;6.770;2024-02-23T10:02:08;8.50;99.90
32614;DHT22;19031;51.400;6.770;2024-02-23T10:04:38;8.50;99.90
32614;DHT22;19031;51.400;6.770;2024-02-23T10:07:05;8.60;99.90
32614;DHT22;19031;51.400;6.770;2024-02-23T10:09:31;8.60;99.90
32614;DHT22;19031;51.400;6.770;2024-02-23T10:11:57;8.70;99.90
32614;DHT22;19031;51.400;6.770;2024-02-23T10:14:22;8.80;99.90
32614;DHT22;19031;51.400;6.770;2024-02-23T10:16:48;8.90;99.90
32614;DHT22;19031;51.400;6.770;2024-02-23T10:19:19;9.00;99.90
32614;DHT22;19031;51.400;6.770;2024-02-23T10:21:45;9.10;99.90
32614;DHT22;19031;51.400;6.770;2024-02-23T10:24:11;9.10;99.90
32614;DHT22;19031;51.400;6.770;2024-02-23T10:26:36;9.00;99.90
32614;DHT22;19031;51.400;6.770;2024-02-23T10:29:02;9.10;99.90
32614;DHT22;19031;51.400;6.770;2024-02-23T10:31:29;9.00;99.90
32614;DHT22;19031;51.400;6.770;2024-02-23T10:33:58;9.00;99.90
32614;DHT22;19031;51.400;6.770;2024-02-23T10:36:27;9.10;99.90
32614;DHT22;19031;51.400;6.770;2024-02-23T10:38:56;9.10;99.90
32614;DHT22;19031;51.400;6.770;2024-02-23T10:41:25;9.10;99.90
32614;DHT22;19031;51.400;6.770;2024-02-23T10:43:51;9.00;99.90
32614;DHT22;19031;51.400;6.770;2024-02-23T10:46:18;9.00;99.90
32614;DHT22;19031;51.400;6.770;2024-02-23T10:48:45;8.90;99.90
32614;DHT22;19031;51.400;6.770;2024-02-23T10:51:13;8.90;99.90
32614;DHT22;19031;51.400;6.770;2024-02-23T10:53:39;8.90;99.90
32614;DHT22;19031;51.400;6.770;2024-02-23T10:56:06;8.90;99.90
32614;DHT22;19031;51.400;6.770;2024-02-23T10:58:32;8.80;99.90
32614;DHT22;19031;51.400;6.770;2024-02-23T11:01:00;8.90;99.90
32614;DHT22;19031;51.400;6.770;2024-02-23T11:03:28;9.00;99.90
32614;DHT22;19031;51.400;6.770;2024-02-23T11:05:54;9.10;99.90
32614;DHT22;19031;51.400;6.770;2024-02-23T11:08:20;9.20;99.90
32614;DHT22;19031;51.400;6.770;2024-02-23T11:10:49;9.20;99.90
32614;DHT22;19031;51.400;6.770;2024-02-23T11:13:18;9.10;99.90
32614;DHT22;19031;51.400;6.770;2024-02-23T11:15:44;9.00;99.90
32614;DHT22;19031;51.400;6.770;2024-02-23T11:18:22;9.10;99.90
32614;DHT22;19031;51.400;6.770;2024-02-23T11:20:59;9.10;99.90
32614;DHT22;19031;51.400;6.770;2024-02-23T11:23:25;9.10;99.90
32614;DHT22;19031;51.400;6.770;2024-02-23T11:28:28;9.00;99.90
32614;DHT22;19031;51.400;6.770;2024-02-23T11:30:54;9.20;99.90
32614;DHT22;19031;51.400;6.770;2024-02-23T11:33:26;9.20;99.90
32614;DHT22;19031;51.400;6.770;2024-02-23T11:35:52;9.10;99.90
32614;DHT22;19031;51.400;6.770;2024-02-23T11:38:19;9.10;99.90
32614;DHT22;19031;51.400;6.770;2024-02-23T11:40:48;9.10;99.90
32614;DHT22;19031;51.400;6.770;2024-02-23T11:43:14;9.10;99.90
32614;DHT22;19031;51.400;6.770;2024-02-23T11:45:40;9.00;99.90
32614;DHT22;19031;51.400;6.770;2024-02-23T11:48:07;9.00;99.90
32614;DHT22;19031;51.400;6.770;2024-02-23T11:50:32;9.00;99.90
32614;DHT22;19031;51.400;6.770;2024-02-23T11:52:59;9.10;99.90
32614;DHT22;19031;51.400;6.770;2024-02-23T11:55:26;9.10;99.90
32614;DHT22;19031;51.400;6.770;2024-02-23T11:57:51;9.10;99.90
32614;DHT22;19031;51.400;6.770;2024-02-23T12:00:17;9.00;99.90
32614;DHT22;19031;51.400;6.770;2024-02-23T12:02:44;9.10;99.90
32614;DHT22;19031;51.400;6.770;2024-02-23T12:05:14;9.00;99.90
32614;DHT22;19031;51.400;6.770;2024-02-23T12:07:40;9.00;99.90
32614;DHT22;19031;51.400;6.770;2024-02-23T12:10:07;9.00;99.90
32614;DHT22;19031;51.400;6.770;2024-02-23T12:12:32;9.00;99.90
32614;DHT22;19031;51.400;6.770;2024-02-23T12:14:58;9.00;99.90
32614;DHT22;19031;51.400;6.770;2024-02-23T12:17:24;9.00;99.90
32614;DHT22;19031;51.400;6.770;2024-02-23T12:19:58;9.00;99.90
32614;DHT22;19031;51.400;6.770;2024-02-23T12:22:25;9.10;99.90
32614;DHT22;19031;51.400;6.770;2024-02-23T12:24:50;9.10;99.90
32614;DHT22;19031;51.400;6.770;2024-02-23T12:27:17;9.10;99.90
32614;DHT22;19031;51.400;6.770;2024-02-23T12:29:51;9.10;99.90
32614;DHT22;19031;51.400;6.770;2024-02-23T12:32:20;9.10;99.90
32614;DHT22;19031;51.400;6.770;2024-02-23T12:34:46;9.00;99.90
32614;DHT22;19031;51.400;6.770;2024-02-23T12:37:15;9.10;99.90
32614;DHT22;19031;51.400;6.770;2024-02-23T12:39:41;9.20;99.90
32614;DHT22;19031;51.400;6.770;2024-02-23T12:42:07;9.20;99.90
32614;DHT22;19031;51.400;6.770;2024-02-23T12:44:39;9.20;99.90
32614;DHT22;19031;51.400;6.770;2024-02-23T12:47:05;9.20;99.90
32614;DHT22;19031;51.400;6.770;2024-02-23T12:49:31;9.30;99.90
32614;DHT22;19031;51.400;6.770;2024-02-23T12:51:56;9.40;99.90
32614;DHT22;19031;51.400;6.770;2024-02-23T12:54:22;9.60;99.90
32614;DHT22;19031;51.400;6.770;2024-02-23T12:56:48;9.80;99.90
32614;DHT22;19031;51.400;6.770;2024-02-23T12:59:15;9.90;99.90
32614;DHT22;19031;51.400;6.770;2024-02-23T13:01:40;10.10;99.90
32614;DHT22;19031;51.400;6.770;2024-02-23T13:04:06;9.90;99.90
32614;DHT22;19031;51.400;6.770;2024-02-23T13:06:39;10.00;99.90
32614;DHT22;19031;51.400;6.770;2024-02-23T13:09:06;9.80;99.90
32614;DHT22;19031;51.400;6.770;2024-02-23T13:11:37;9.80;99.90
32614;DHT22;19031;51.400;6.770;2024-02-23T13:14:03;9.80;99.90
32614;DHT22;19031;51.400;6.770;2024-02-23T13:16:29;9.70;99.90
32614;DHT22;19031;51.400;6.770;2024-02-23T13:18:55;9.90;99.90
32614;DHT22;19031;51.400;6.770;2024-02-23T13:21:20;9.80;99.90
32614;DHT22;19031;51.400;6.770;2024-02-23T13:23:46;9.80;99.90
32614;DHT22;19031;51.400;6.770;2024-02-23T13:26:12;9.90;99.90
32614;DHT22;19031;51.400;6.770;2024-02-23T13:28:43;10.00;99.90
32614;DHT22;19031;51.400;6.770;2024-02-23T13:31:09;10.00;99.90
32614;DHT22;19031;51.400;6.770;2024-02-23T13:33:35;10.00;99.90
32614;DHT22;19031;51.400;6.770;2024-02-23T13:36:01;10.10;99.90
32614;DHT22;19031;51.400;6.770;2024-02-23T13:38:26;10.20;99.90
32614;DHT22;19031;51.400;6.770;2024-02-23T13:40:52;10.20;99.90
32614;DHT22;19031;51.400;6.770;2024-02-23T13:43:17;10.20;99.90
32614;DHT22;19031;51.400;6.770;2024-02-23T13:45:52;10.20;99.90
32614;DHT22;19031;51.400;6.770;2024-02-23T13:48:19;10.20;99.90
32614;DHT22;19031;51.400;6.770;2024-02-23T13:50:46;10.20;99.90
32614;DHT22;19031;51.400;6.770;2024-02-23T13:53:12;10.30;99.90
32614;DHT22;19031;51.400;6.770;2024-02-23T13:55:40;10.20;99.90
32614;DHT22;19031;51.400;6.770;2024-02-23T13:58:07;10.40;99.90
32614;DHT22;19031;51.400;6.770;2024-02-23T14:00:33;10.30;99.90
32614;DHT22;19031;51.400;6.770;2024-02-23T14:02:58;10.20;99.90
32614;DHT22;19031;51.400;6.770;2024-02-23T14:05:24;10.30;99.90
32614;DHT22;19031;51.400;6.770;2024-02-23T14:07:51;10.30;99.90
32614;DHT22;19031;51.400;6.770;2024-02-23T14:10:19;10.20;99.90
32614;DHT22;19031;51.400;6.770;2024-02-23T14:12:45;10.10;99.90
32614;DHT22;19031;51.400;6.770;2024-02-23T14:15:11;10.20;99.90
32614;DHT22;19031;51.400;6.770;2024-02-23T14:17:38;10.20;99.90
32614;DHT22;19031;51.400;6.770;2024-02-23T14:20:04;10.40;99.90
32614;DHT22;19031;51.400;6.770;2024-02-23T14:22:30;10.60;99.90
32614;DHT22;19031;51.400;6.770;2024-02-23T14:24:56;10.70;99.90
32614;DHT22;19031;51.400;6.770;2024-02-23T14:27:21;10.70;99.90
32614;DHT22;19031;51.400;6.770;2024-02-23T14:29:47;10.90;99.90
32614;DHT22;19031;51.400;6.770;2024-02-23T14:32:16;10.90;99.90
32614;DHT22;19031;51.400;6.770;2024-02-23T14:34:42;11.10;99.90
32614;DHT22;19031;51.400;6.770;2024-02-23T14:37:07;11.10;99.90
32614;DHT22;19031;51.400;6.770;2024-02-23T14:39:33;11.00;99.90
32614;DHT22;19031;51.400;6.770;2024-02-23T14:41:59;11.10;99.90
32614;DHT22;19031;51.400;6.770;2024-02-23T14:44:25;11.20;99.90
32614;DHT22;19031;51.400;6.770;2024-02-23T14:46:51;11.10;99.90
32614;DHT22;19031;51.400;6.770;2024-02-23T14:49:17;11.40;99.90
32614;DHT22;19031;51.400;6.770;2024-02-23T14:51:43;12.30;99.90
32614;DHT22;19031;51.400;6.770;2024-02-23T14:54:11;13.00;99.90
32614;DHT22;19031;51.400;6.770;2024-02-23T14:56:37;12.60;99.90
32614;DHT22;19031;51.400;6.770;2024-02-23T14:59:03;12.10;99.80
32614;DHT22;19031;51.400;6.770;2024-02-23T15:01:28;11.80;99.90
32614;DHT22;19031;51.400;6.770;2024-02-23T15:03:54;11.40;99.90
32614;DHT22;19031;51.400;6.770;2024-02-23T15:06:19;11.00;99.90
32614;DHT22;19031;51.400;6.770;2024-02-23T15:08:48;10.90;99.90
32614;DHT22;19031;51.400;6.770;2024-02-23T15:11:13;10.80;99.90
32614;DHT22;19031;51.400;6.770;2024-02-23T15:13:39;10.60;99.90
32614;DHT22;19031;51.400;6.770;2024-02-23T15:16:05;10.60;99.90
32614;DHT22;19031;51.400;6.770;2024-02-23T15:18:31;10.50;99.90
32614;DHT22;19031;51.400;6.770;2024-02-23T15:20:57;10.40;99.90
32614;DHT22;19031;51.400;6.770;2024-02-23T15:23:22;10.30;99.90
32614;DHT22;19031;51.400;6.770;2024-02-23T15:25:49;10.30;99.90
32614;DHT22;19031;51.400;6.770;2024-02-23T15:28:15;10.20;99.90
32614;DHT22;19031;51.400;6.770;2024-02-23T15:30:50;9.90;99.90
32614;DHT22;19031;51.400;6.770;2024-02-23T15:33:20;9.80;99.90
32614;DHT22;19031;51.400;6.770;2024-02-23T15:35:46;9.60;99.90
32614;DHT22;19031;51.400;6.770;2024-02-23T15:38:11;9.40;99.90
32614;DHT22;19031;51.400;6.770;2024-02-23T15:40:37;9.30;99.90